Aérodrome :
LOGIN :

S'inscrire | Disclaimer

   EN    FR    IT 

 










Légende :    VFR   VFR Marginal   IFR   IFR Intensif   IFR Très Intensif
Visi : 
Plafond : 
>= 8 km
>= 3000ft
5 à 8 km
1000 à 3000 ft
1500m à 5 km
500 à 1000 ft
800 à 1500m
200 à 500 ft
< 800m
< 200 ft
Symboles :   Orages  Brouillard  Fortes neiges  Fortes précipitations  Vent > 20 kt
SIGMETs :   Divers  Orages  Givrage  Turbulence  Onde Orograph.  Cendres Volcan.







- Altitude de l'aérodrome : 870 ft
- Code IATA : ETZ
- Voir les cartes d'approche


LFJL - Metz Nancy Lorraine

DERNIER METAR :
  • 142200Z AUTO 12005KT 0550 0450 R22/0550N R04/0650N FG VV/// 04/04 Q1026 TEMPO 0200

METARs EXPIRÉS :
  • 142130Z AUTO 13006KT 0500 0400 R22/0500N R04/0600N FG VV/// 04/04 Q1026 TEMPO 0200
  • 142100Z AUTO 11004KT 0450 R22/0500N R04/0550N FG VV/// 05/05 Q1026 TEMPO 0200
  • 142030Z AUTO 14004KT 0400 R22/0500N R04/0500N FG VV/// 05/05 Q1027 TEMPO 0200
  • 142000Z AUTO 14004KT 100V170 0400 0350 R22/0500N R04/0400N FG VV/// 05/05 Q1026 BECMG 0300 FG
  • 141930Z AUTO 11006KT 0400 0350 R22/0600N R04/0450N FG VV/// 06/06 Q1027 BECMG 0300 FG

TAF AMD TAF LFJL
Valide du 14 à 20h jusqu'au 15 à 18h UTC


142021Z 1420/1518 12003KT 0400 FG VV///
TEMPO 1420/1509 0200
PROB30
TEMPO 1512/1517 4000 BR BKN005
Pas de NOTAMs connus pour ce terrain.



MET'MAP, la Météo Aéronautique d'un coup d'oeil ! - Copyright ORBIFLY Décembre 2007 - Disclaimer

ORBIFLY MET'MAP TEAM :

Programmation & Développement : Alexandra Zaïnal
Conception & Développement : Baudouin d'Aumeries
Co-Programmation & Développement : Marc-Olivier Méhu
Soutien technique & logistique : Manuel Goepfert

Contact : metmap@orbifly.com




SOURCES & CREDITS :

   NOAA